Time;durP1;ratioP1;P1;durP2;ratioP2;P2;SDS_P1;SDS_P2;PMS_P1;PMS_P2;Temp;Humidity;BMP_temperature;BMP_pressure;BME280_temperature;BME280_humidity;BME280_pressure;Samples;Min_cycle;Max_cycle;Signal;HPM_P1;HPM_P2
2022/05/03 00:01:49;;;;;;;12.75;8.30;;;;;;;8.69;100.00;96399.50;4955452;28;20050;-65
2022/05/03 00:04:35;;;;;;;10.32;7.15;;;;;;;8.64;100.00;96388.84;4983210;28;20045;-65
2022/05/03 00:07:07;;;;;;;13.93;6.93;;;;;;;8.49;100.00;96383.13;4973689;28;20031;-65
2022/05/03 00:09:39;;;;;;;9.43;7.00;;;;;;;8.39;100.00;96381.75;4973874;28;20035;-66
2022/05/03 00:12:10;;;;;;;12.60;8.20;;;;;;;8.37;100.00;96380.50;4975394;28;20030;-66
2022/05/03 00:14:38;;;;;;;11.98;7.90;;;;;;;8.18;100.00;96382.09;4978301;28;20038;-65
2022/05/03 00:17:04;;;;;;;12.13;8.15;;;;;;;8.01;100.00;96380.59;4975929;28;20097;-68
2022/05/03 00:19:30;;;;;;;14.15;9.48;;;;;;;7.86;100.00;96378.69;4988920;28;20031;-66
2022/05/03 00:21:55;;;;;;;12.60;8.57;;;;;;;7.79;100.00;96384.00;4974094;28;20045;-64
2022/05/03 00:24:22;;;;;;;13.07;7.88;;;;;;;7.63;100.00;96378.56;4973027;28;20495;-65
2022/05/03 00:26:49;;;;;;;14.00;8.68;;;;;;;7.51;100.00;96374.03;4974710;28;20066;-66
2022/05/03 00:29:15;;;;;;;13.68;9.48;;;;;;;7.55;100.00;96382.31;4971861;28;20439;-67
2022/05/03 00:31:41;;;;;;;17.30;10.90;;;;;;;7.50;100.00;96377.91;4973340;28;20210;-68
2022/05/03 00:34:07;;;;;;;14.95;10.20;;;;;;;7.50;100.00;96385.28;4972832;28;20117;-65
2022/05/03 00:36:32;;;;;;;16.38;9.27;;;;;;;7.63;100.00;96379.38;4970942;28;20038;-66
2022/05/03 00:38:58;;;;;;;12.43;9.35;;;;;;;7.55;100.00;96374.13;4972275;28;20106;-65
2022/05/03 00:41:39;;;;;;;14.93;9.85;;;;;;;7.34;100.00;96374.41;4972783;28;20031;-67
2022/05/03 00:47:12;;;;;;;11.52;8.63;;;;;;;7.30;100.00;96381.72;4971842;28;20090;-68
2022/05/03 00:49:52;;;;;;;12.85;9.88;;;;;;;7.44;100.00;96374.66;4972774;28;20031;-68
2022/05/03 00:52:44;;;;;;;18.15;10.02;;;;;;;7.31;100.00;96373.19;4972687;28;20037;-65
2022/05/03 00:55:47;;;;;;;11.18;8.38;;;;;;;7.44;100.00;96384.78;4968552;28;20062;-65
2022/05/03 00:58:35;;;;;;;12.73;8.52;;;;;;;7.53;100.00;96366.31;4971258;28;20043;-67
2022/05/03 01:01:00;;;;;;;13.05;7.97;;;;;;;7.60;100.00;96369.19;4972571;28;20066;-65
2022/05/03 01:03:52;;;;;;;11.88;8.00;;;;;;;7.64;100.00;96369.28;4971004;28;20459;-65
2022/05/03 01:06:33;;;;;;;9.90;7.70;;;;;;;7.63;100.00;96368.47;4970549;28;20054;-67
2022/05/03 01:09:09;;;;;;;16.15;8.38;;;;;;;7.41;100.00;96371.84;4971911;28;20069;-65
2022/05/03 01:11:41;;;;;;;11.45;7.97;;;;;;;7.42;100.00;96374.22;4970772;28;20484;-66
2022/05/03 01:14:12;;;;;;;14.55;9.10;;;;;;;7.51;100.00;96368.59;4972193;28;20043;-66
2022/05/03 01:16:55;;;;;;;11.32;8.48;;;;;;;7.43;100.00;96370.34;4971434;28;20041;-67
2022/05/03 01:19:40;;;;;;;12.07;9.00;;;;;;;7.48;100.00;96372.03;4973747;28;20038;-64
2022/05/03 01:22:54;;;;;;;13.35;8.80;;;;;;;7.52;100.00;96367.44;4991701;28;20127;-64
2022/05/03 01:25:52;;;;;;;13.82;9.20;;;;;;;7.44;100.00;96382.84;4972260;28;20070;-67
2022/05/03 01:28:49;;;;;;;13.88;8.88;;;;;;;7.39;100.00;96380.38;4991266;28;20042;-65
2022/05/03 01:31:15;;;;;;;12.02;8.98;;;;;;;7.32;100.00;96384.88;4981487;28;20086;-66
2022/05/03 01:33:48;;;;;;;11.77;8.60;;;;;;;7.21;100.00;96384.63;4972640;28;20038;-64
2022/05/03 01:36:27;;;;;;;14.23;8.50;;;;;;;7.23;100.00;96380.38;4972078;28;20033;-65
2022/05/03 01:39:14;;;;;;;12.68;9.50;;;;;;;7.06;100.00;96378.03;4969783;28;20487;-66
2022/05/03 01:41:58;;;;;;;11.23;8.30;;;;;;;7.04;100.00;96375.66;4986768;28;20081;-66
2022/05/03 01:44:40;;;;;;;12.15;8.27;;;;;;;7.04;100.00;96377.56;4971890;28;20093;-70
2022/05/03 01:47:17;;;;;;;11.57;8.82;;;;;;;6.60;100.00;96370.25;4952348;28;20408;-66
2022/05/03 01:50:18;;;;;;;13.18;9.13;;;;;;;6.40;100.00;96372.06;4953238;28;20098;-66
2022/05/03 01:53:05;;;;;;;10.68;8.02;;;;;;;6.54;100.00;96385.25;4952638;28;20110;-67
2022/05/03 01:55:52;;;;;;;11.65;8.43;;;;;;;6.69;100.00;96383.69;4975802;28;20031;-67
2022/05/03 01:58:39;;;;;;;12.13;8.52;;;;;;;6.88;100.00;96386.53;4953296;28;20066;-66
2022/05/03 02:01:14;;;;;;;13.38;9.32;;;;;;;7.01;100.00;96384.53;4953166;28;20042;-65
2022/05/03 02:03:51;;;;;;;16.00;10.68;;;;;;;6.99;100.00;96377.84;4957356;28;20031;-68
2022/05/03 02:06:40;;;;;;;17.23;10.07;;;;;;;6.78;100.00;96378.88;4955563;29;20031;-66
2022/05/03 02:09:06;;;;;;;19.10;10.17;;;;;;;6.84;100.00;96376.69;4962602;28;20042;-68
2022/05/03 02:12:02;;;;;;;16.63;9.65;;;;;;;6.85;100.00;96375.56;4971996;28;20416;-66
2022/05/03 02:14:45;;;;;;;12.93;9.15;;;;;;;6.94;100.00;96376.19;4971602;28;20031;-65
2022/05/03 02:17:30;;;;;;;12.45;9.13;;;;;;;6.87;100.00;96382.22;4955766;29;20035;-70
2022/05/03 02:20:15;;;;;;;13.68;9.68;;;;;;;6.66;100.00;96385.19;4957672;29;20057;-65
2022/05/03 02:23:18;;;;;;;15.98;9.77;;;;;;;6.61;100.00;96384.63;4958334;28;20027;-66
2022/05/03 02:26:14;;;;;;;13.70;9.25;;;;;;;6.87;100.00;96381.44;4969828;28;20058;-65
2022/05/03 02:28:45;;;;;;;16.95;8.82;;;;;;;6.88;100.00;96383.81;4987692;28;20066;-66
2022/05/03 02:31:18;;;;;;;12.68;8.65;;;;;;;6.83;100.00;96384.06;4971376;28;20046;-65
2022/05/03 02:33:52;;;;;;;12.55;8.63;;;;;;;6.73;100.00;96386.50;4971370;28;20034;-65
2022/05/03 02:36:23;;;;;;;15.90;10.55;;;;;;;6.56;100.00;96388.41;4969256;28;20027;-64
2022/05/03 02:38:53;;;;;;;16.00;9.82;;;;;;;6.46;100.00;96387.00;4971160;28;20057;-66
2022/05/03 02:41:20;;;;;;;;;;;;;;;6.54;100.00;96389.91;4955295;28;20051;-64
2022/05/03 02:43:47;;;;;;;14.05;9.23;;;;;;;6.49;100.00;96382.78;4972933;28;20606;-68
2022/05/03 02:46:45;;;;;;;16.45;10.07;;;;;;;6.55;100.00;96384.09;4976824;28;20082;-65
2022/05/03 02:49:18;;;;;;;18.35;11.88;;;;;;;6.49;100.00;96388.22;4971948;28;20035;-67
2022/05/03 02:52:25;;;;;;;14.43;10.73;;;;;;;6.69;100.00;96384.47;4972908;28;20041;-66
2022/05/03 02:55:18;;;;;;;15.07;10.80;;;;;;;6.74;100.00;96374.50;4984948;28;20042;-65
2022/05/03 02:58:11;;;;;;;16.17;10.38;;;;;;;6.81;100.00;96378.19;4966295;28;20049;-65
2022/05/03 03:03:37;;;;;;;16.48;10.30;;;;;;;6.72;100.00;96382.19;4978322;28;20126;-64
2022/05/03 03:06:03;;;;;;;14.48;10.82;;;;;;;6.63;100.00;96383.16;4975910;28;20054;-68
2022/05/03 03:08:44;;;;;;;15.32;11.07;;;;;;;6.68;100.00;96384.81;4976906;28;20034;-67
2022/05/03 03:11:37;;;;;;;16.23;11.00;;;;;;;6.53;100.00;96383.66;4975873;28;20107;-66
2022/05/03 03:14:24;;;;;;;14.35;10.70;;;;;;;6.56;100.00;96387.63;4976479;28;20089;-66
2022/05/03 03:17:05;;;;;;;14.10;10.30;;;;;;;6.58;100.00;96388.06;4979478;28;20058;-66
2022/05/03 03:19:48;;;;;;;14.95;10.38;;;;;;;6.39;100.00;96381.38;4977632;28;20037;-66
2022/05/03 03:22:15;;;;;;;20.33;10.48;;;;;;;6.44;100.00;96385.75;4966175;28;20030;-66
2022/05/03 03:24:42;;;;;;;16.27;11.10;;;;;;;6.59;100.00;96389.66;4992411;28;20082;-64
2022/05/03 03:27:11;;;;;;;13.80;11.10;;;;;;;6.63;100.00;96380.44;4980374;28;20062;-67
2022/05/03 03:29:41;;;;;;;17.23;10.98;;;;;;;6.67;100.00;96385.97;4975466;28;20034;-67
2022/05/03 03:32:08;;;;;;;14.35;10.98;;;;;;;6.58;100.00;96379.91;4975164;28;20038;-65
2022/05/03 03:34:34;;;;;;;14.65;10.13;;;;;;;6.60;100.00;96380.34;4971046;28;20027;-65
2022/05/03 03:37:01;;;;;;;15.25;10.60;;;;;;;6.12;100.00;96381.00;4968094;28;20027;-67
2022/05/03 03:39:29;;;;;;;15.65;11.70;;;;;;;6.08;100.00;96380.09;4973594;28;20680;-66
2022/05/03 03:41:56;;;;;;;16.17;9.93;;;;;;;6.23;100.00;96381.31;4979855;28;20433;-67
2022/05/03 03:44:21;;;;;;;16.27;11.75;;;;;;;6.28;100.00;96388.41;4988258;28;20031;-64
2022/05/03 03:46:46;;;;;;;18.33;12.25;;;;;;;6.23;100.00;96375.88;4994101;28;20057;-66
2022/05/03 03:49:12;;;;;;;19.27;11.57;;;;;;;6.33;100.00;96382.75;4977898;28;20026;-67
2022/05/03 03:51:38;;;;;;;16.77;11.75;;;;;;;6.32;100.00;96384.69;4982069;28;20080;-67
2022/05/03 03:54:06;;;;;;;17.48;11.10;;;;;;;6.40;100.00;96391.09;4979185;28;20042;-67
2022/05/03 03:56:32;;;;;;;15.18;11.00;;;;;;;6.30;100.00;96394.31;4971348;28;20038;-65
2022/05/03 03:58:57;;;;;;;17.73;11.38;;;;;;;6.21;100.00;96394.47;4977416;28;20038;-66
2022/05/03 04:01:23;;;;;;;16.75;10.80;;;;;;;6.09;100.00;96389.06;4986677;28;20034;-67
2022/05/03 04:03:50;;;;;;;15.75;10.30;;;;;;;6.17;100.00;96390.06;4981464;28;20034;-67
2022/05/03 04:06:15;;;;;;;15.18;10.43;;;;;;;6.08;100.00;96395.63;4980031;28;20273;-68
2022/05/03 04:08:40;;;;;;;13.45;10.27;;;;;;;5.90;100.00;96393.16;4980927;28;20620;-68
2022/05/03 04:11:18;;;;;;;14.40;10.57;;;;;;;5.90;100.00;96392.38;4972255;28;20042;-66
2022/05/03 04:13:44;;;;;;;14.27;10.45;;;;;;;5.76;100.00;96381.84;4973041;28;20473;-67
2022/05/03 04:16:10;;;;;;;15.57;10.38;;;;;;;5.81;100.00;96391.72;4975893;28;20031;-67
2022/05/03 04:18:45;;;;;;;14.30;10.00;;;;;;;5.92;100.00;96390.09;4974374;28;20043;-67
2022/05/03 04:21:17;;;;;;;14.95;9.80;;;;;;;5.88;100.00;96389.19;4974305;28;20031;-67
2022/05/03 04:23:45;;;;;;;14.20;9.95;;;;;;;5.78;100.00;96392.38;4973828;28;20030;-68
2022/05/03 04:26:11;;;;;;;16.83;9.98;;;;;;;5.94;100.00;96404.94;4971051;28;20030;-66
2022/05/03 04:28:37;;;;;;;15.57;10.52;;;;;;;5.84;100.00;96399.19;4973879;28;20031;-66
2022/05/03 04:31:03;;;;;;;14.55;11.13;;;;;;;5.70;100.00;96399.53;4974196;28;20818;-67
2022/05/03 04:33:29;;;;;;;16.42;12.10;;;;;;;5.69;100.00;96400.66;4976878;28;20039;-68
2022/05/03 04:35:54;;;;;;;17.42;10.88;;;;;;;5.75;100.00;96402.03;4974526;28;20054;-66
2022/05/03 04:38:19;;;;;;;14.98;11.52;;;;;;;5.76;100.00;96406.31;4974892;28;20426;-68
2022/05/03 04:40:45;;;;;;;13.45;10.25;;;;;;;5.92;100.00;96415.38;4974136;28;20510;-67
2022/05/03 04:43:11;;;;;;;16.27;10.73;;;;;;;6.00;100.00;96418.31;4973978;28;20034;-66
2022/05/03 04:45:36;;;;;;;14.77;10.88;;;;;;;6.10;100.00;96413.19;4973147;28;20031;-66
2022/05/03 04:48:02;;;;;;;15.80;11.18;;;;;;;6.22;100.00;96417.78;4969704;28;20029;-67
2022/05/03 04:50:27;;;;;;;16.05;11.52;;;;;;;6.18;100.00;96425.06;4970571;28;20042;-67
2022/05/03 04:52:53;;;;;;;17.00;11.82;;;;;;;6.23;100.00;96427.56;4968201;28;20049;-66
2022/05/03 04:55:18;;;;;;;18.23;11.35;;;;;;;6.46;100.00;96419.66;4972071;28;20725;-67
2022/05/03 04:57:43;;;;;;;17.67;10.93;;;;;;;6.80;100.00;96431.03;4970585;28;20038;-66
2022/05/03 05:00:09;;;;;;;16.15;10.23;;;;;;;7.31;100.00;96435.03;4972812;28;20039;-66
2022/05/03 05:02:35;;;;;;;12.18;9.27;;;;;;;8.28;100.00;96429.84;4976041;28;20057;-68
2022/05/03 05:05:00;;;;;;;10.77;8.45;;;;;;;9.73;100.00;96434.03;4973038;28;20058;-68
2022/05/03 05:07:26;;;;;;;9.82;7.57;;;;;;;11.06;96.28;96424.81;4970173;28;20117;-67
2022/05/03 05:12:35;;;;;;;9.18;7.10;;;;;;;13.35;80.13;96444.56;4972102;28;20038;-67
2022/05/03 05:15:00;;;;;;;11.60;7.13;;;;;;;14.40;74.12;96448.03;4980307;28;20085;-67
2022/05/03 05:17:26;;;;;;;7.68;6.20;;;;;;;15.08;66.96;96439.53;4972475;28;20035;-68
2022/05/03 05:19:51;;;;;;;7.95;6.00;;;;;;;16.32;64.32;96446.47;4974098;28;20027;-67
2022/05/03 05:22:17;;;;;;;9.07;6.68;;;;;;;16.85;60.45;96440.78;4973844;28;20033;-68
2022/05/03 05:24:42;;;;;;;8.23;6.40;;;;;;;16.74;61.46;96435.34;4972574;28;20035;-68
2022/05/03 05:27:08;;;;;;;9.70;6.22;;;;;;;18.00;57.12;96437.13;4971790;28;20109;-67
2022/05/03 05:29:33;;;;;;;6.85;5.65;;;;;;;18.65;54.50;96435.94;4979483;28;20113;-68
2022/05/03 05:31:59;;;;;;;9.40;6.63;;;;;;;18.90;54.29;96432.69;4981340;28;20031;-68
2022/05/03 05:34:24;;;;;;;8.13;6.45;;;;;;;19.30;53.96;96432.59;4972550;28;20066;-67
2022/05/03 05:36:49;;;;;;;9.65;6.85;;;;;;;19.55;51.84;96434.03;4971744;28;20470;-68
2022/05/03 05:39:15;;;;;;;8.90;6.82;;;;;;;20.33;47.71;96434.13;4972425;28;20038;-68
2022/05/03 05:41:40;;;;;;;13.63;7.55;;;;;;;19.92;49.33;96434.78;4972156;28;20500;-67
2022/05/03 05:44:06;;;;;;;11.73;8.38;;;;;;;17.91;53.77;96431.34;4970133;28;20052;-67
2022/05/03 05:46:31;;;;;;;9.23;6.35;;;;;;;19.76;50.79;96441.13;4971403;28;20054;-65
2022/05/03 05:48:56;;;;;;;10.40;8.05;;;;;;;20.22;49.12;96426.06;4971560;28;20043;-64
2022/05/03 05:51:22;;;;;;;11.30;8.23;;;;;;;18.89;54.84;96431.91;4972294;28;20069;-66
2022/05/03 05:53:47;;;;;;;12.00;8.45;;;;;;;20.60;50.20;96431.00;4972157;28;20042;-66
2022/05/03 05:56:14;;;;;;;10.00;7.47;;;;;;;21.89;46.27;96440.31;4971146;28;20038;-65
2022/05/03 05:58:40;;;;;;;10.95;8.15;;;;;;;21.39;46.54;96436.28;4971240;28;20035;-66
2022/05/03 06:01:05;;;;;;;10.40;7.28;;;;;;;21.59;46.25;96433.34;4972703;28;20035;-66
2022/05/03 06:03:32;;;;;;;9.20;7.63;;;;;;;21.99;45.06;96440.44;4973153;28;20031;-65
2022/05/03 06:05:59;;;;;;;12.75;8.05;;;;;;;21.65;45.19;96439.13;4972965;28;20492;-66
2022/05/03 06:08:25;;;;;;;12.20;8.20;;;;;;;22.12;44.70;96443.97;4973305;28;20035;-66
2022/05/03 06:10:50;;;;;;;11.48;7.75;;;;;;;22.13;44.10;96451.13;4973528;28;20031;-66
2022/05/03 06:13:17;;;;;;;10.75;8.55;;;;;;;18.40;55.02;96456.63;4972946;28;20088;-66
2022/05/03 06:15:42;;;;;;;11.07;8.48;;;;;;;19.54;51.87;96455.50;4972416;28;20031;-66
2022/05/03 06:18:08;;;;;;;10.00;7.72;;;;;;;20.77;48.94;96456.03;4978723;28;20046;-67
2022/05/03 06:20:36;;;;;;;11.45;7.63;;;;;;;20.44;49.82;96447.75;4977263;28;20092;-67
2022/05/03 06:23:03;;;;;;;14.10;7.97;;;;;;;19.74;52.33;96460.22;4971578;28;20034;-66
2022/05/03 06:25:28;;;;;;;11.10;7.63;;;;;;;20.52;49.90;96457.44;4970989;28;20068;-66
2022/05/03 06:27:54;;;;;;;10.38;7.35;;;;;;;21.14;47.46;96465.69;4971965;28;20547;-67
2022/05/03 06:30:19;;;;;;;14.57;8.43;;;;;;;21.31;47.10;96465.63;4971749;28;20069;-67
2022/05/03 06:32:45;;;;;;;10.25;8.00;;;;;;;21.39;46.73;96469.72;4986632;28;20170;-66
2022/05/03 06:35:12;;;;;;;11.30;8.30;;;;;;;21.46;46.48;96468.78;4972800;28;20031;-66
2022/05/03 06:37:39;;;;;;;12.00;8.80;;;;;;;20.54;47.97;96466.13;4989150;28;20038;-65
2022/05/03 06:40:09;;;;;;;12.00;7.93;;;;;;;21.02;48.01;96472.00;4986955;28;20093;-65
2022/05/03 06:42:37;;;;;;;14.23;7.85;;;;;;;20.78;49.24;96469.50;4977965;28;20035;-67
2022/05/03 06:45:03;;;;;;;12.20;8.65;;;;;;;19.65;52.49;96472.69;4980501;28;20050;-67
2022/05/03 06:47:29;;;;;;;13.02;8.43;;;;;;;19.94;52.15;96480.38;4973479;28;20503;-67
2022/05/03 06:49:55;;;;;;;13.38;7.78;;;;;;;21.40;48.37;96471.31;4975729;28;20054;-68
2022/05/03 06:52:20;;;;;;;12.02;8.50;;;;;;;22.04;45.61;96482.47;4976255;28;20101;-67
2022/05/03 06:54:46;;;;;;;9.60;7.70;;;;;;;23.14;42.14;96475.53;4975219;28;20038;-68
2022/05/03 06:57:11;;;;;;;11.50;7.53;;;;;;;24.26;40.66;96478.38;4974833;28;20031;-68
2022/05/03 06:59:36;;;;;;;12.02;7.95;;;;;;;25.39;38.28;96481.53;4973854;28;20034;-68
2022/05/03 07:02:02;;;;;;;8.95;7.32;;;;;;;25.58;36.78;96475.84;4987119;28;20050;-67
2022/05/03 07:04:27;;;;;;;9.13;6.65;;;;;;;23.88;39.45;96479.53;4984271;28;20026;-67
2022/05/03 07:06:53;;;;;;;11.63;8.10;;;;;;;19.57;50.94;96474.09;4993033;28;20050;-66
2022/05/03 07:09:18;;;;;;;9.85;7.22;;;;;;;21.77;45.00;96482.94;4978402;28;20354;-68
2022/05/03 07:11:44;;;;;;;12.57;7.40;;;;;;;23.45;41.90;96484.72;4975995;28;20026;-67
2022/05/03 07:14:09;;;;;;;10.48;8.88;;;;;;;18.84;52.43;96485.13;4974831;28;20039;-67
2022/05/03 07:16:34;;;;;;;11.00;8.45;;;;;;;19.21;51.38;96485.16;4974685;28;20042;-69
2022/05/03 07:24:27;;;;;;;10.15;7.25;;;;;;;18.48;53.18;96490.53;4975504;28;20426;-66
2022/05/03 07:26:53;;;;;;;8.90;7.00;;;;;;;19.54;51.43;96485.28;4974865;28;20026;-68
2022/05/03 07:29:18;;;;;;;10.05;7.03;;;;;;;20.82;48.05;96494.44;4975852;28;20042;-68
2022/05/03 07:31:43;;;;;;;17.17;12.00;;;;;;;22.70;43.74;96490.25;4969571;28;20046;-68
2022/05/03 07:34:09;;;;;;;11.82;7.78;;;;;;;24.42;39.31;96494.13;4975242;28;20031;-67
2022/05/03 07:36:35;;;;;;;10.60;7.03;;;;;;;24.48;39.00;96489.44;4973036;28;20134;-67
2022/05/03 07:39:00;;;;;;;8.55;6.30;;;;;;;24.65;38.73;96483.56;4975064;28;20110;-68
2022/05/03 07:41:26;;;;;;;11.32;6.05;;;;;;;25.62;36.64;96488.44;4974014;28;20113;-67
2022/05/03 07:43:51;;;;;;;7.43;6.05;;;;;;;24.88;36.92;96484.97;4974850;28;20484;-66
2022/05/03 07:46:17;;;;;;;9.57;5.78;;;;;;;25.46;36.67;96486.81;4966947;28;20038;-66
2022/05/03 07:48:42;;;;;;;8.95;5.22;;;;;;;26.30;34.38;96487.22;4973724;28;20131;-66
2022/05/03 07:51:11;;;;;;;8.88;5.43;;;;;;;24.98;35.54;96494.94;4970221;28;20104;-68
2022/05/03 07:53:37;;;;;;;9.25;5.82;;;;;;;23.56;38.17;96498.31;4966153;28;20511;-65
2022/05/03 07:56:03;;;;;;;7.97;5.32;;;;;;;23.64;39.83;96502.38;4964002;28;20142;-65
2022/05/03 07:58:29;;;;;;;6.82;5.40;;;;;;;24.19;39.51;96499.03;4961375;28;20071;-67
2022/05/03 08:00:54;;;;;;;9.13;6.10;;;;;;;25.22;37.14;96488.69;4959174;28;20062;-67
2022/05/03 08:03:20;;;;;;;8.80;4.97;;;;;;;23.85;40.62;96497.22;4963572;28;20496;-66
2022/05/03 08:05:46;;;;;;;9.20;5.82;;;;;;;24.72;38.88;96500.88;4974089;28;20427;-66
2022/05/03 08:08:11;;;;;;;8.85;5.90;;;;;;;24.05;40.19;96497.59;4961213;28;20039;-65
2022/05/03 08:10:37;;;;;;;8.70;5.05;;;;;;;24.04;41.15;96504.44;4964542;28;20554;-66
2022/05/03 08:13:02;;;;;;;8.32;6.05;;;;;;;24.07;40.86;96499.16;4963618;28;20121;-66
2022/05/03 08:15:28;;;;;;;7.78;5.80;;;;;;;24.16;41.04;96505.53;4960325;28;20054;-66
2022/05/03 08:17:53;;;;;;;6.90;5.25;;;;;;;22.58;42.90;96505.81;4964772;28;20053;-66
2022/05/03 08:20:18;;;;;;;6.65;5.22;;;;;;;22.87;42.04;96507.63;4956413;28;20543;-66
2022/05/03 08:22:44;;;;;;;7.00;5.28;;;;;;;22.11;45.51;96510.13;4970770;28;20488;-67
2022/05/03 08:25:10;;;;;;;14.02;6.30;;;;;;;21.64;47.47;96501.66;4958446;28;20601;-66
2022/05/03 08:27:38;;;;;;;6.68;5.18;;;;;;;22.83;43.91;96513.34;4967126;28;20059;-67
2022/05/03 08:30:06;;;;;;;7.53;5.07;;;;;;;23.16;43.55;96507.38;4964775;28;20038;-67
2022/05/03 08:32:31;;;;;;;7.38;4.82;;;;;;;22.98;44.14;96508.00;4979164;28;20262;-68
2022/05/03 08:34:57;;;;;;;7.78;5.38;;;;;;;22.29;45.19;96514.34;4964023;28;20039;-67
2022/05/03 08:42:51;;;;;;;7.03;5.65;;;;;;;23.44;43.20;96515.94;4977789;23;20043;-65
2022/05/03 08:45:18;;;;;;;7.47;5.90;;;;;;;23.69;42.39;96520.56;4936576;28;20375;-66
2022/05/03 08:47:46;;;;;;;7.65;6.20;;;;;;;23.27;43.34;96518.16;4952007;28;20506;-65
2022/05/03 08:50:12;;;;;;;8.40;5.72;;;;;;;22.90;42.90;96520.66;4938800;29;20500;-65
2022/05/03 08:52:59;;;;;;;10.32;5.82;;;;;;;23.57;42.09;96516.66;4940496;28;20079;-66
2022/05/03 08:55:25;;;;;;;9.13;6.47;;;;;;;20.95;47.88;96511.97;4949031;28;20555;-64
2022/05/03 08:57:51;;;;;;;10.38;6.63;;;;;;;21.82;45.70;96517.84;4957911;28;20051;-65
2022/05/03 09:00:17;;;;;;;8.57;6.72;;;;;;;22.64;44.14;96515.16;4952810;28;20038;-64
2022/05/03 09:02:48;;;;;;;11.32;6.82;;;;;;;22.77;43.53;96508.75;4949696;28;20276;-64
2022/05/03 09:05:15;;;;;;;12.20;6.57;;;;;;;23.14;43.31;96507.06;4952742;28;20416;-65
2022/05/03 09:07:57;;;;;;;9.77;7.30;;;;;;;23.20;43.33;96513.63;4961620;28;20475;-65
2022/05/03 09:10:28;;;;;;;8.00;6.00;;;;;;;23.16;43.63;96512.22;4945629;28;20066;-63
2022/05/03 09:12:57;;;;;;;11.38;5.80;;;;;;;23.02;43.65;96503.06;4953559;28;20507;-66
2022/05/03 09:15:31;;;;;;;7.78;6.15;;;;;;;21.73;46.16;96510.13;4957100;28;20058;-66
2022/05/03 09:17:56;;;;;;;18.02;8.90;;;;;;;20.54;50.35;96516.22;4963384;28;20057;-64
2022/05/03 09:26:15;;;;;;;13.30;7.88;;;;;;;19.35;53.01;96507.06;4953244;28;20405;-65
2022/05/03 09:28:46;;;;;;;10.20;6.95;;;;;;;18.85;55.79;96506.13;4940773;28;20049;-66
2022/05/03 09:31:13;;;;;;;10.35;7.30;;;;;;;19.21;54.28;96507.38;4924915;28;20060;-66
2022/05/03 09:33:38;;;;;;;12.10;7.55;;;;;;;19.47;52.98;96503.66;4944270;28;20074;-66
2022/05/03 09:36:12;;;;;;;10.27;6.28;;;;;;;19.84;52.70;96500.84;4940851;28;20089;-62
2022/05/03 09:38:48;;;;;;;10.52;7.10;;;;;;;19.65;52.89;96496.91;4944831;28;20118;-65
2022/05/03 09:41:14;;;;;;;10.75;7.60;;;;;;;19.74;53.17;96494.34;4948751;28;20043;-65
2022/05/03 09:44:01;;;;;;;10.13;7.32;;;;;;;19.57;52.59;96496.31;4948015;28;20061;-64
2022/05/03 09:46:48;;;;;;;10.80;7.65;;;;;;;19.19;53.91;96498.69;4924160;28;20044;-64
2022/05/03 09:49:13;;;;;;;9.68;7.05;;;;;;;18.49;56.03;96500.41;4912981;29;20392;-64
2022/05/03 09:51:42;;;;;;;12.90;7.90;;;;;;;17.64;59.45;96495.81;4928727;29;20046;-63
2022/05/03 09:54:08;;;;;;;10.40;7.57;;;;;;;17.53;59.23;96493.22;4931522;28;20110;-65
2022/05/03 09:56:37;;;;;;;13.35;9.15;;;;;;;17.45;60.54;96497.31;4941689;28;20046;-64
2022/05/03 09:59:09;;;;;;;14.93;9.10;;;;;;;17.04;61.59;96491.91;4929670;28;20052;-62
2022/05/03 10:01:35;;;;;;;11.32;8.63;;;;;;;16.27;64.21;96485.59;4953252;28;20043;-64
2022/05/03 10:04:05;;;;;;;11.10;7.55;;;;;;;16.14;64.10;96484.56;4942069;28;20043;-64
2022/05/03 10:06:32;;;;;;;;;;;;;;;16.06;66.54;96489.34;4942482;28;20054;-63
2022/05/03 10:08:57;;;;;;;11.32;8.52;;;;;;;16.20;64.46;96483.69;4942849;28;20009;-65
2022/05/03 10:11:26;;;;;;;13.68;8.82;;;;;;;16.01;64.62;96485.03;4927666;28;20497;-64
2022/05/03 10:13:53;;;;;;;14.68;9.00;;;;;;;15.99;65.77;96473.63;4942098;28;20078;-63
2022/05/03 10:21:56;;;;;;;11.48;8.65;;;;;;;15.95;68.11;96472.06;4954555;28;20073;-65
2022/05/03 10:24:22;;;;;;;11.77;7.40;;;;;;;16.28;66.86;96475.31;4937466;28;20065;-63
2022/05/03 10:27:01;;;;;;;13.02;9.05;;;;;;;16.90;63.18;96473.50;4942038;28;20083;-63
2022/05/03 10:29:29;;;;;;;15.53;8.13;;;;;;;16.41;64.53;96474.41;4935813;29;20062;-65
2022/05/03 10:31:56;;;;;;;11.50;8.20;;;;;;;17.83;60.73;96474.97;4940675;29;20051;-65
2022/05/03 10:34:40;;;;;;;11.70;7.88;;;;;;;18.98;56.73;96466.59;4937024;28;20465;-65
2022/05/03 10:37:10;;;;;;;14.32;8.00;;;;;;;20.05;52.53;96458.66;4936879;28;20046;-65
2022/05/03 10:39:44;;;;;;;10.85;7.70;;;;;;;20.17;51.79;96454.41;4941792;28;20185;-65
2022/05/03 10:42:12;;;;;;;11.95;7.80;;;;;;;20.21;51.37;96457.84;4937103;28;20138;-66
2022/05/03 10:44:41;;;;;;;8.48;6.32;;;;;;;20.11;52.29;96444.22;4942533;28;20071;-66
2022/05/03 10:47:08;;;;;;;9.30;7.20;;;;;;;20.50;51.73;96443.19;4935507;28;20039;-65
2022/05/03 10:49:33;;;;;;;11.13;7.53;;;;;;;20.74;50.90;96448.53;4942633;28;20067;-65
2022/05/03 10:51:59;;;;;;;10.65;7.28;;;;;;;21.43;49.34;96444.53;4941688;28;20081;-65
2022/05/03 10:54:24;;;;;;;13.50;8.80;;;;;;;22.32;47.17;96449.31;4938649;28;20047;-65
2022/05/03 10:57:09;;;;;;;8.25;6.43;;;;;;;22.42;46.36;96445.38;4941530;28;20039;-65
2022/05/03 10:59:49;;;;;;;8.75;6.50;;;;;;;22.15;46.48;96440.28;4942185;28;20059;-65
2022/05/03 11:02:14;;;;;;;10.05;6.45;;;;;;;22.53;45.50;96442.97;4937066;28;20043;-65
2022/05/03 11:05:16;;;;;;;9.63;7.05;;;;;;;20.99;48.48;96442.25;4939924;28;20074;-65
2022/05/03 11:08:21;;;;;;;11.60;7.68;;;;;;;20.74;50.73;96435.44;4942010;28;20039;-64
2022/05/03 11:10:47;;;;;;;13.10;8.95;;;;;;;19.91;51.37;96430.44;4940726;28;20047;-63
2022/05/03 11:13:41;;;;;;;10.07;7.80;;;;;;;19.64;52.19;96429.47;4940404;28;20369;-65
2022/05/03 11:16:25;;;;;;;10.15;7.90;;;;;;;19.62;50.96;96429.09;4937825;28;20052;-64
2022/05/03 11:18:52;;;;;;;10.75;7.40;;;;;;;19.30;51.11;96429.84;4942121;28;20051;-66
2022/05/03 11:21:17;;;;;;;10.38;7.50;;;;;;;19.16;52.95;96428.19;4936516;28;20043;-65
2022/05/03 11:23:53;;;;;;;11.63;8.05;;;;;;;18.67;55.47;96423.22;4941764;28;20106;-65
2022/05/03 11:26:21;;;;;;;11.25;7.95;;;;;;;18.06;57.20;96429.91;4941030;28;20086;-65
2022/05/03 11:28:49;;;;;;;12.32;8.18;;;;;;;18.01;57.30;96424.84;4946883;28;20039;-64
2022/05/03 11:31:17;;;;;;;11.68;7.75;;;;;;;17.94;57.76;96422.97;4942101;28;20457;-64
2022/05/03 11:33:55;;;;;;;9.90;7.43;;;;;;;18.20;57.91;96419.75;4941875;28;20559;-64
2022/05/03 11:36:21;;;;;;;9.00;6.38;;;;;;;18.58;57.43;96411.88;4920796;29;20390;-64
2022/05/03 11:38:50;;;;;;;12.00;7.25;;;;;;;18.88;54.76;96407.38;4926997;29;20091;-65
2022/05/03 11:41:27;;;;;;;9.25;6.65;;;;;;;19.06;54.49;96418.06;4919936;29;20051;-65
2022/05/03 11:43:53;;;;;;;8.80;6.53;;;;;;;19.30;53.65;96418.72;4926195;29;20098;-65
2022/05/03 11:46:20;;;;;;;10.05;6.70;;;;;;;19.43;51.38;96408.53;4919797;29;20082;-64
2022/05/03 11:48:52;;;;;;;8.52;5.68;;;;;;;19.65;52.24;96408.78;4927842;29;20048;-63
2022/05/03 11:57:08;;;;;;;8.13;5.03;;;;;;;21.07;47.38;96401.06;4920857;29;20039;-64
2022/05/03 11:59:34;;;;;;;5.65;4.38;;;;;;;21.26;45.85;96402.88;4925915;29;20134;-64
2022/05/03 12:02:17;;;;;;;6.88;4.00;;;;;;;21.02;42.46;96396.84;4926404;29;20126;-64
2022/05/03 12:05:14;;;;;;;6.03;3.90;;;;;;;21.03;44.18;96394.84;4926084;29;20070;-64
2022/05/03 12:07:44;;;;;;;10.43;4.70;;;;;;;21.10;44.52;96389.06;4925007;29;20052;-63
2022/05/03 12:10:19;;;;;;;10.13;4.20;;;;;;;21.33;43.54;96397.06;4921213;29;20047;-64
2022/05/03 12:13:12;;;;;;;7.22;4.05;;;;;;;21.03;44.04;96392.84;4925446;29;20055;-64
2022/05/03 12:15:56;;;;;;;5.30;3.83;;;;;;;20.60;42.88;96383.72;4938314;28;20055;-64
2022/05/03 12:18:37;;;;;;;4.57;3.10;;;;;;;20.54;42.01;96379.88;4921242;29;20086;-63
2022/05/03 12:21:16;;;;;;;5.28;2.40;;;;;;;20.90;41.15;96386.47;4923401;29;20059;-62
2022/05/03 12:23:43;;;;;;;4.28;2.70;;;;;;;20.99;40.19;96381.81;4915917;29;20671;-62